createdAt,value
2023-03-22T00:00:15.456Z,8.59
2023-03-22T00:02:42.872Z,8.60
2023-03-22T00:05:10.062Z,8.58
2023-03-22T00:07:37.687Z,8.53
2023-03-22T00:10:05.782Z,8.45
2023-03-22T00:12:32.899Z,8.38
2023-03-22T00:15:00.187Z,8.36
2023-03-22T00:17:27.309Z,8.35
2023-03-22T00:19:54.581Z,8.34
2023-03-22T00:22:21.811Z,8.29
2023-03-22T00:24:48.926Z,8.25
2023-03-22T00:27:16.051Z,8.12
2023-03-22T00:29:43.141Z,8.14
2023-03-22T00:32:10.416Z,8.11
2023-03-22T00:34:37.501Z,8.08
2023-03-22T00:37:04.610Z,8.09
2023-03-22T00:39:32.194Z,8.06
2023-03-22T00:41:59.636Z,8.12
2023-03-22T00:44:26.996Z,8.13
2023-03-22T00:46:54.058Z,8.18
2023-03-22T00:49:21.855Z,8.14
2023-03-22T00:51:49.090Z,8.24
2023-03-22T00:54:17.358Z,8.31
2023-03-22T00:56:49.773Z,8.35
2023-03-22T00:59:17.433Z,8.36
2023-03-22T01:01:44.593Z,8.42
2023-03-22T01:04:17.837Z,8.46
2023-03-22T01:06:47.014Z,8.45
2023-03-22T01:09:14.988Z,8.46
2023-03-22T01:11:43.741Z,8.58
2023-03-22T01:14:13.705Z,8.52
2023-03-22T01:16:40.925Z,8.45
2023-03-22T01:19:08.388Z,8.38
2023-03-22T01:21:35.545Z,8.35
2023-03-22T01:24:03.372Z,8.31
2023-03-22T01:26:30.525Z,8.36
2023-03-22T01:28:57.642Z,8.34
2023-03-22T01:31:25.127Z,8.28
2023-03-22T01:33:52.437Z,8.29
2023-03-22T01:36:21.899Z,8.32
2023-03-22T01:38:49.018Z,8.33
2023-03-22T01:41:17.284Z,8.42
2023-03-22T01:43:45.308Z,8.48
2023-03-22T01:46:12.455Z,8.50
2023-03-22T01:48:47.249Z,8.53
2023-03-22T01:51:20.514Z,8.54
2023-03-22T01:54:09.878Z,8.55
2023-03-22T01:56:40.636Z,8.43
2023-03-22T01:59:14.261Z,8.35
2023-03-22T02:02:00.244Z,8.38
2023-03-22T02:04:34.323Z,8.39
2023-03-22T02:07:15.172Z,8.33
2023-03-22T02:09:44.083Z,8.30
2023-03-22T02:12:26.669Z,8.27
2023-03-22T02:15:21.592Z,8.35
2023-03-22T02:18:30.408Z,8.37
2023-03-22T02:21:37.825Z,8.35
2023-03-22T02:24:35.189Z,8.34
2023-03-22T02:27:16.192Z,8.29
2023-03-22T02:29:58.463Z,8.30
2023-03-22T02:32:28.538Z,8.21
2023-03-22T02:35:17.637Z,8.22
2023-03-22T02:37:47.725Z,8.24
2023-03-22T02:40:17.950Z,8.28
2023-03-22T02:43:03.200Z,8.30
2023-03-22T02:45:34.830Z,8.26
2023-03-22T02:48:12.698Z,8.21
2023-03-22T02:51:21.488Z,8.11
2023-03-22T02:53:57.490Z,8.04
2023-03-22T02:56:34.422Z,7.99
2023-03-22T02:59:04.476Z,7.93
2023-03-22T03:01:38.040Z,7.85
2023-03-22T03:04:09.742Z,7.82
2023-03-22T03:06:41.316Z,7.74
2023-03-22T03:09:08.767Z,7.78
2023-03-22T03:11:36.554Z,7.89
2023-03-22T03:14:04.865Z,7.88
2023-03-22T03:16:36.748Z,7.88
2023-03-22T03:19:20.278Z,7.86
2023-03-22T03:21:54.048Z,7.86
2023-03-22T03:24:28.018Z,7.83
2023-03-22T03:27:07.191Z,7.82
2023-03-22T03:29:37.538Z,7.86
2023-03-22T03:32:17.215Z,7.85
2023-03-22T03:34:57.223Z,7.85
2023-03-22T03:37:41.417Z,7.81
2023-03-22T03:40:17.958Z,7.76
2023-03-22T03:42:51.912Z,7.71
2023-03-22T03:45:22.116Z,7.74
2023-03-22T03:47:56.835Z,7.77
2023-03-22T03:50:25.823Z,7.81
2023-03-22T03:52:54.774Z,7.84
2023-03-22T03:55:23.596Z,7.87
2023-03-22T03:57:50.931Z,7.82
2023-03-22T04:00:19.111Z,7.79
2023-03-22T04:03:09.480Z,7.72
2023-03-22T04:06:00.118Z,7.65
2023-03-22T04:08:29.670Z,7.65
2023-03-22T04:10:57.434Z,7.62
2023-03-22T04:13:25.152Z,7.62
2023-03-22T04:15:57.366Z,7.55
2023-03-22T04:18:24.863Z,7.50
2023-03-22T04:20:53.614Z,7.48
2023-03-22T04:23:22.593Z,7.45
2023-03-22T04:25:50.735Z,7.46
2023-03-22T04:28:26.455Z,7.46
2023-03-22T04:30:54.233Z,7.47
2023-03-22T04:33:40.467Z,7.48
2023-03-22T04:36:19.659Z,7.44
2023-03-22T04:39:14.519Z,7.49
2023-03-22T04:41:47.265Z,7.50
2023-03-22T04:44:14.543Z,7.54
2023-03-22T04:46:49.996Z,7.52
2023-03-22T04:49:17.738Z,7.51
2023-03-22T04:51:44.915Z,7.49
2023-03-22T04:54:23.894Z,7.53
2023-03-22T04:56:51.314Z,7.57
2023-03-22T04:59:21.877Z,7.59
2023-03-22T05:01:51.430Z,7.59
2023-03-22T05:04:22.680Z,7.51
2023-03-22T05:06:55.596Z,7.44
2023-03-22T05:09:30.278Z,7.38
2023-03-22T05:11:58.077Z,7.36
2023-03-22T05:14:39.303Z,7.33
2023-03-22T05:17:07.965Z,7.32
2023-03-22T05:19:38.821Z,7.28
2023-03-22T05:22:06.082Z,7.28
2023-03-22T05:24:43.005Z,7.22
2023-03-22T05:27:14.698Z,7.22
2023-03-22T05:29:44.795Z,7.25
2023-03-22T05:32:19.605Z,7.27
2023-03-22T05:34:48.389Z,7.25
2023-03-22T05:37:24.407Z,7.25
2023-03-22T05:39:54.870Z,7.30
2023-03-22T05:42:27.094Z,7.35
2023-03-22T05:44:54.231Z,7.38
2023-03-22T05:47:22.099Z,7.44
2023-03-22T05:49:57.747Z,7.53
2023-03-22T05:52:26.987Z,7.46
2023-03-22T05:55:30.278Z,7.42
2023-03-22T05:58:01.921Z,7.48
2023-03-22T06:00:35.759Z,7.53
2023-03-22T06:03:25.643Z,7.64
2023-03-22T06:05:58.369Z,7.87
2023-03-22T06:08:39.337Z,7.95
2023-03-22T06:11:07.481Z,8.07
2023-03-22T06:13:35.990Z,9.92
2023-03-22T06:16:04.389Z,11.02
2023-03-22T06:18:33.021Z,10.45
2023-03-22T06:21:07.334Z,9.60
2023-03-22T06:23:34.460Z,9.27
2023-03-22T06:26:01.521Z,9.17
2023-03-22T06:28:30.293Z,9.19
2023-03-22T06:31:06.444Z,9.29
2023-03-22T06:33:40.876Z,9.84
2023-03-22T06:36:23.330Z,10.15
2023-03-22T06:39:06.599Z,10.28
2023-03-22T06:41:34.264Z,10.47
2023-03-22T06:44:02.819Z,10.46
2023-03-22T06:46:49.844Z,10.52
2023-03-22T06:49:52.523Z,10.60
2023-03-22T06:52:24.869Z,10.89
2023-03-22T06:54:52.405Z,10.75
2023-03-22T06:57:20.132Z,11.32
2023-03-22T06:59:47.533Z,10.97
2023-03-22T07:02:14.743Z,10.66
2023-03-22T07:04:53.327Z,10.53
2023-03-22T07:07:20.577Z,10.42
2023-03-22T07:09:47.955Z,10.43
2023-03-22T07:12:15.416Z,10.54
2023-03-22T07:14:42.792Z,10.56
2023-03-22T07:17:22.704Z,10.64
2023-03-22T07:19:49.804Z,10.78
2023-03-22T07:22:17.394Z,10.94
2023-03-22T07:24:56.189Z,11.05
2023-03-22T07:27:26.373Z,11.16
2023-03-22T07:29:54.126Z,11.32
2023-03-22T07:32:21.833Z,11.94
2023-03-22T07:34:57.890Z,11.80
2023-03-22T07:37:25.638Z,11.75
2023-03-22T07:39:52.954Z,11.84
2023-03-22T07:42:20.512Z,11.89
2023-03-22T07:45:06.908Z,12.21
2023-03-22T07:47:43.198Z,12.34
2023-03-22T07:50:36.004Z,12.61
2023-03-22T07:53:05.813Z,12.69
2023-03-22T07:55:32.968Z,12.80
2023-03-22T07:58:00.109Z,12.92
2023-03-22T08:00:27.745Z,13.09
2023-03-22T08:03:15.348Z,13.27
2023-03-22T08:06:07.723Z,13.50
2023-03-22T08:08:37.298Z,13.60
2023-03-22T08:11:06.558Z,13.50
2023-03-22T08:13:34.303Z,13.56
2023-03-22T08:16:01.672Z,13.63
2023-03-22T08:18:30.511Z,13.81
2023-03-22T08:21:00.338Z,13.89
2023-03-22T08:23:40.852Z,13.91
2023-03-22T08:26:27.728Z,14.23
2023-03-22T08:28:57.192Z,14.24
2023-03-22T08:31:24.383Z,14.10
2023-03-22T08:33:51.622Z,14.19
2023-03-22T08:36:22.873Z,14.28
2023-03-22T08:38:58.063Z,14.50
2023-03-22T08:41:37.338Z,14.62
2023-03-22T08:44:05.288Z,14.72
2023-03-22T08:46:35.193Z,14.79
2023-03-22T08:49:03.373Z,15.01
2023-03-22T08:51:35.748Z,15.09
2023-03-22T08:54:17.129Z,15.37
2023-03-22T08:56:53.617Z,15.30
2023-03-22T08:59:40.076Z,15.45
2023-03-22T09:02:33.158Z,15.64
2023-03-22T09:05:01.141Z,15.79
2023-03-22T09:07:28.364Z,15.86
2023-03-22T09:10:04.753Z,16.11
2023-03-22T09:12:35.729Z,16.16
2023-03-22T09:15:04.194Z,15.98
2023-03-22T09:17:31.780Z,16.31
2023-03-22T09:20:11.554Z,16.37
2023-03-22T09:22:41.828Z,16.57
2023-03-22T09:25:12.663Z,16.67
2023-03-22T09:27:42.399Z,16.71
2023-03-22T09:30:10.202Z,16.87
2023-03-22T09:32:41.034Z,16.95
2023-03-22T09:35:10.912Z,17.04
2023-03-22T09:37:53.416Z,17.16
2023-03-22T09:40:27.666Z,17.20
2023-03-22T09:43:00.613Z,17.15
2023-03-22T09:45:38.519Z,17.49
2023-03-22T09:48:12.266Z,17.54
2023-03-22T09:50:46.736Z,17.36
2023-03-22T09:53:16.475Z,17.74
2023-03-22T09:55:48.719Z,17.83
2023-03-22T09:58:26.026Z,17.91
2023-03-22T10:01:01.236Z,17.80
2023-03-22T10:04:16.735Z,17.67
2023-03-22T10:06:49.870Z,17.72
2023-03-22T10:10:03.384Z,18.01
2023-03-22T10:13:00.212Z,18.39
2023-03-22T10:15:49.873Z,18.58
2023-03-22T10:18:22.012Z,18.83
2023-03-22T10:20:58.811Z,18.92
2023-03-22T10:23:44.129Z,18.80
2023-03-22T10:26:21.635Z,18.98
2023-03-22T10:29:01.559Z,19.02
2023-03-22T10:31:31.284Z,19.16
2023-03-22T10:34:05.345Z,19.41
2023-03-22T10:36:37.022Z,19.52
2023-03-22T10:44:13.710Z,19.66
2023-03-22T10:46:42.261Z,19.70
2023-03-22T10:49:20.278Z,19.88
2023-03-22T10:55:18.116Z,20.02
2023-03-22T10:57:56.154Z,19.96
2023-03-22T11:00:24.926Z,20.31
2023-03-22T11:02:58.341Z,20.50
2023-03-22T11:05:28.597Z,20.16
2023-03-22T11:08:00.643Z,19.92
2023-03-22T11:10:35.657Z,20.12
2023-03-22T11:13:11.775Z,20.07
2023-03-22T11:15:51.616Z,20.23
2023-03-22T11:18:19.905Z,20.46
2023-03-22T11:20:58.559Z,20.67
2023-03-22T11:23:28.437Z,20.47
2023-03-22T11:25:59.196Z,20.36
2023-03-22T11:28:27.849Z,20.47
2023-03-22T11:31:02.236Z,20.80
2023-03-22T11:33:29.970Z,20.92
2023-03-22T11:35:59.776Z,20.81
2023-03-22T11:38:31.998Z,21.16
2023-03-22T11:41:02.337Z,21.32
2023-03-22T11:43:55.804Z,21.14
2023-03-22T11:46:23.958Z,21.55
2023-03-22T11:48:57.690Z,21.50
2023-03-22T11:51:30.400Z,21.76
2023-03-22T11:54:06.825Z,21.89
2023-03-22T11:56:34.714Z,21.64
2023-03-22T11:59:14.346Z,21.52
2023-03-22T12:02:13.960Z,21.68
2023-03-22T12:04:44.393Z,21.70
2023-03-22T12:07:17.366Z,21.82
2023-03-22T12:09:51.179Z,21.85
2023-03-22T12:16:07.981Z,22.13
2023-03-22T12:19:17.521Z,22.54
2023-03-22T12:21:50.125Z,22.53
2023-03-22T12:24:30.263Z,22.59
2023-03-22T12:27:28.068Z,22.67
2023-03-22T12:30:01.089Z,22.58
2023-03-22T12:32:36.761Z,22.75
2023-03-22T12:35:16.666Z,22.80
2023-03-22T12:37:48.145Z,22.88
2023-03-22T12:40:31.798Z,22.88
2023-03-22T12:43:07.725Z,22.55
2023-03-22T12:45:41.335Z,22.36
2023-03-22T12:48:18.938Z,22.59
2023-03-22T12:50:56.619Z,22.91
2023-03-22T12:53:30.644Z,22.87
2023-03-22T12:55:58.762Z,22.85
2023-03-22T12:58:26.822Z,23.16
2023-03-22T13:01:01.211Z,23.20
2023-03-22T13:03:38.386Z,22.89
2023-03-22T13:06:27.213Z,23.04
2023-03-22T13:09:16.232Z,23.30
2023-03-22T13:11:46.380Z,23.10
2023-03-22T13:14:56.224Z,23.24
2023-03-22T13:17:23.334Z,23.16
2023-03-22T13:20:00.240Z,23.20
2023-03-22T13:22:36.749Z,23.54
2023-03-22T13:25:13.487Z,23.41
2023-03-22T13:27:51.429Z,23.29
2023-03-22T13:30:21.716Z,23.45
2023-03-22T13:32:56.412Z,23.46
2023-03-22T13:35:44.258Z,23.68
2023-03-22T13:38:31.440Z,23.51
2023-03-22T13:41:32.900Z,23.56
2023-03-22T13:51:33.482Z,23.51
2023-03-22T13:54:13.277Z,23.80
2023-03-22T13:57:01.339Z,23.87
2023-03-22T13:59:33.685Z,23.66
2023-03-22T14:02:16.261Z,23.47
2023-03-22T14:04:57.174Z,23.54
2023-03-22T14:07:29.176Z,23.42
2023-03-22T14:10:32.296Z,23.66
2023-03-22T14:13:05.600Z,23.68
2023-03-22T14:15:38.748Z,23.70
2023-03-22T14:18:05.905Z,23.74
2023-03-22T14:20:38.100Z,23.71
